Terminal Aerodrome Forecast
Issued by NWS Duluth, MN

Home | Current Version | Previous Version | Text Only | Print | Product List | Glossary On
Versions: 1 2 3 4 5 6 7 8 9 10 11 12 13 14 15 16 17 18 19
000
FTUS43 KDLH 201452 AAB
TAFDLH
TAF AMD
KDLH 201452Z 2015/2112 17008KT P6SM SCT008
     FM201900 14008KT P6SM SCT025
     FM202100 13008KT P6SM SCT070
     FM210600 16005KT P6SM VCTS SCT050CB SCT100
     FM211000 17005KT 4SM -SHRA VCTS BKN025CB OVC040=

USA.gov is the U.S. government's official web portal to all federal, state and local government web resources and services.